Time;durP1;ratioP1;P1;durP2;ratioP2;P2;SDS_P1;SDS_P2;PMS_P1;PMS_P2;Temp;Humidity;BMP_temperature;BMP_pressure;BME280_temperature;BME280_humidity;BME280_pressure;Samples;Min_cycle;Max_cycle;Signal;HPM_P1;HPM_P2
2022/12/24 00:00:18;;;;;;;53.85;7.10;;;10.10;99.90;;;;;;5070021;28;20536;-72
2022/12/24 00:02:44;;;;;;;57.22;7.35;;;10.00;99.90;;;;;;5066198;28;20023;-72
2022/12/24 00:05:10;;;;;;;50.20;7.28;;;10.00;99.90;;;;;;5061623;28;20201;-71
2022/12/24 00:07:36;;;;;;;53.58;7.22;;;10.00;99.90;;;;;;5066279;28;20417;-71
2022/12/24 00:10:03;;;;;;;53.83;6.68;;;10.00;99.90;;;;;;5067204;28;20025;-71
2022/12/24 00:12:28;;;;;;;52.40;6.88;;;9.90;99.90;;;;;;5067307;28;20107;-71
2022/12/24 00:14:54;;;;;;;51.75;7.20;;;9.90;99.90;;;;;;5069251;28;20120;-71
2022/12/24 00:17:20;;;;;;;50.55;6.50;;;9.90;99.90;;;;;;5067942;28;20093;-71
2022/12/24 00:19:45;;;;;;;62.28;7.10;;;9.90;99.90;;;;;;5067789;28;20031;-71
2022/12/24 00:22:11;;;;;;;56.00;6.65;;;9.90;99.90;;;;;;5066450;28;20533;-71
2022/12/24 00:24:36;;;;;;;48.15;6.35;;;9.90;99.90;;;;;;5066453;28;20152;-71
2022/12/24 00:27:04;;;;;;;52.70;6.57;;;9.80;99.90;;;;;;5063621;28;20095;-72
2022/12/24 00:29:30;;;;;;;54.75;6.82;;;9.90;99.90;;;;;;5065333;28;20640;-71
2022/12/24 00:31:56;;;;;;;52.47;7.18;;;9.80;99.90;;;;;;5067901;28;20401;-71
2022/12/24 00:34:23;;;;;;;51.33;6.65;;;9.80;99.90;;;;;;5054653;28;20025;-71
2022/12/24 00:36:48;;;;;;;63.58;7.20;;;9.80;99.90;;;;;;5055157;28;20025;-71
2022/12/24 00:39:14;;;;;;;54.00;7.25;;;9.80;99.90;;;;;;5067835;28;20052;-71
2022/12/24 00:41:39;;;;;;;55.13;6.53;;;9.80;99.90;;;;;;5059205;28;20778;-71
2022/12/24 00:44:08;;;;;;;50.58;6.00;;;9.70;99.90;;;;;;5063615;28;20032;-71
2022/12/24 00:46:39;;;;;;;48.13;6.20;;;9.70;99.90;;;;;;5048482;28;20035;-71
2022/12/24 00:49:05;;;;;;;48.53;6.60;;;9.70;99.90;;;;;;5069174;28;20099;-71
2022/12/24 00:51:32;;;;;;;56.83;6.38;;;9.60;99.90;;;;;;5067975;28;20108;-71
2022/12/24 00:53:58;;;;;;;56.08;6.50;;;9.70;99.90;;;;;;5067622;28;20032;-71
2022/12/24 00:56:24;;;;;;;51.83;7.10;;;9.60;99.90;;;;;;5064299;28;20024;-71
2022/12/24 00:58:50;;;;;;;45.25;6.18;;;9.60;99.90;;;;;;5069338;28;20397;-71
2022/12/24 01:01:16;;;;;;;54.53;6.95;;;9.60;99.90;;;;;;5067605;28;20035;-71
2022/12/24 01:03:42;;;;;;;50.95;6.65;;;9.60;99.90;;;;;;5057442;28;20033;-71
2022/12/24 01:06:19;;;;;;;62.20;7.55;;;9.60;99.90;;;;;;5062802;28;20037;-71
2022/12/24 01:08:45;;;;;;;57.50;7.30;;;9.60;99.90;;;;;;5049941;28;20498;-71
2022/12/24 01:11:11;;;;;;;56.13;7.53;;;9.60;99.90;;;;;;5071232;28;20020;-71
2022/12/24 01:13:37;;;;;;;42.78;5.93;;;9.60;99.90;;;;;;5057717;28;20037;-71
2022/12/24 01:16:11;;;;;;;59.45;8.15;;;9.60;99.90;;;;;;5062950;28;20119;-71
2022/12/24 01:18:37;;;;;;;62.25;7.65;;;9.50;99.90;;;;;;5066864;28;20077;-70
2022/12/24 01:21:03;;;;;;;54.45;6.55;;;9.50;99.90;;;;;;5072421;28;20051;-71
2022/12/24 01:23:30;;;;;;;56.45;7.35;;;9.50;99.90;;;;;;5058989;28;20025;-71
2022/12/24 01:26:00;;;;;;;63.45;6.90;;;9.50;99.90;;;;;;5070016;28;20032;-71
2022/12/24 01:28:26;;;;;;;66.68;7.57;;;9.50;99.90;;;;;;5073976;28;20085;-71
2022/12/24 01:30:52;;;;;;;67.35;8.50;;;9.40;99.90;;;;;;5070336;28;20430;-71
2022/12/24 01:33:18;;;;;;;44.95;6.95;;;9.40;99.90;;;;;;5069406;28;20024;-70
2022/12/24 01:35:43;;;;;;;58.28;7.57;;;9.40;99.90;;;;;;5067326;28;20024;-70
2022/12/24 01:38:10;;;;;;;57.78;7.03;;;9.40;99.90;;;;;;5067583;28;20035;-71
2022/12/24 01:43:23;;;;;;;51.47;6.47;;;9.30;99.90;;;;;;5071554;28;20043;-71
2022/12/24 01:45:51;;;;;;;52.80;6.95;;;9.30;99.90;;;;;;5045811;28;20112;-71
2022/12/24 01:48:30;;;;;;;46.97;6.30;;;9.30;99.90;;;;;;5052371;28;20111;-72
2022/12/24 01:51:23;;;;;;;49.38;5.75;;;9.30;99.90;;;;;;5060388;28;20032;-71
2022/12/24 01:53:55;;;;;;;51.40;7.63;;;9.30;99.90;;;;;;5071677;28;20107;-71
2022/12/24 01:56:22;;;;;;;39.20;5.80;;;9.30;99.90;;;;;;5070788;28;20033;-71
2022/12/24 01:58:54;;;;;;;41.60;5.63;;;9.30;99.90;;;;;;5061285;28;20082;-70
2022/12/24 02:01:19;;;;;;;37.53;5.82;;;9.30;99.90;;;;;;5044896;28;20051;-70
2022/12/24 02:03:45;;;;;;;46.90;5.88;;;9.30;99.90;;;;;;5065348;28;20078;-70
2022/12/24 02:06:16;;;;;;;50.92;6.82;;;9.30;99.90;;;;;;5057914;28;20032;-70
2022/12/24 02:08:43;;;;;;;43.55;5.60;;;9.30;99.90;;;;;;5068514;28;20539;-70
2022/12/24 02:11:18;;;;;;;46.47;5.43;;;9.30;99.90;;;;;;5068390;28;20474;-71
2022/12/24 02:13:47;;;;;;;47.97;5.22;;;9.30;99.90;;;;;;5066140;28;20116;-70
2022/12/24 02:17:04;;;;;;;54.55;5.88;;;9.30;99.90;;;;;;5061745;28;20064;-70
2022/12/24 02:19:48;;;;;;;;;;;9.30;99.90;;;;;;5035058;28;20040;-71
2022/12/24 02:22:26;;;;;;;35.83;4.97;;;9.40;99.90;;;;;;5066470;28;19954;-71
2022/12/24 02:25:10;;;;;;;43.85;5.07;;;9.40;99.90;;;;;;5047638;28;20036;-70
2022/12/24 02:28:08;;;;;;;37.38;5.20;;;9.40;99.90;;;;;;5068198;28;20377;-71
2022/12/24 02:30:42;;;;;;;31.63;4.70;;;9.40;99.90;;;;;;5066875;28;20032;-71
2022/12/24 02:33:44;;;;;;;44.50;5.45;;;9.50;99.90;;;;;;5067588;28;20124;-71
2022/12/24 02:36:12;;;;;;;51.20;6.78;;;9.50;99.90;;;;;;5026422;28;21539;-71
2022/12/24 02:38:59;;;;;;;41.85;5.50;;;9.50;99.90;;;;;;5078336;28;20381;-71
2022/12/24 02:44:25;;;;;;;48.25;5.30;;;9.50;99.90;;;;;;5062128;28;20075;-72
2022/12/24 02:46:52;;;;;;;46.10;6.10;;;9.50;99.90;;;;;;5069290;28;20051;-70
2022/12/24 02:49:18;;;;;;;55.53;6.35;;;9.50;99.90;;;;;;5070096;28;20021;-70
2022/12/24 02:51:43;;;;;;;44.80;5.38;;;9.40;99.90;;;;;;5077348;28;20020;-71
2022/12/24 02:54:10;;;;;;;46.20;6.15;;;9.40;99.90;;;;;;5067000;28;20077;-70
2022/12/24 02:56:50;;;;;;;54.35;6.47;;;9.40;99.90;;;;;;5066906;28;20039;-71
2022/12/24 02:59:28;;;;;;;52.35;6.65;;;9.40;99.90;;;;;;5059993;28;20028;-70
2022/12/24 03:02:23;;;;;;;59.55;7.15;;;9.40;99.90;;;;;;5070205;28;20099;-70
2022/12/24 03:05:04;;;;;;;48.00;7.20;;;9.40;99.90;;;;;;5063753;28;20402;-70
2022/12/24 03:07:30;;;;;;;60.05;7.28;;;9.40;99.90;;;;;;5069150;28;20082;-70
2022/12/24 03:10:02;;;;;;;57.47;7.00;;;9.40;99.90;;;;;;5059444;28;20032;-71
2022/12/24 03:12:42;;;;;;;54.35;7.07;;;9.40;99.90;;;;;;5041488;28;20032;-71
2022/12/24 03:15:12;;;;;;;57.05;7.03;;;9.40;99.90;;;;;;5063638;28;20355;-71
2022/12/24 03:17:39;;;;;;;50.45;6.25;;;9.40;99.90;;;;;;5068211;28;20025;-71
2022/12/24 03:20:08;;;;;;;57.83;7.85;;;9.40;99.90;;;;;;5072611;28;20051;-71
2022/12/24 03:22:34;;;;;;;63.10;7.70;;;9.40;99.90;;;;;;5079393;28;20025;-71
2022/12/24 03:25:00;;;;;;;67.45;7.78;;;9.40;99.90;;;;;;5060995;28;20111;-72
2022/12/24 03:27:29;;;;;;;64.55;7.90;;;9.40;99.90;;;;;;5072542;28;20545;-71
2022/12/24 03:29:55;;;;;;;65.03;8.25;;;9.40;99.90;;;;;;5074018;28;20060;-71
2022/12/24 03:32:29;;;;;;;59.10;7.25;;;9.40;99.90;;;;;;5060105;28;20354;-71
2022/12/24 03:34:55;;;;;;;62.72;7.05;;;9.40;99.90;;;;;;5062439;28;20032;-71
2022/12/24 03:37:22;;;;;;;63.03;7.00;;;9.40;99.90;;;;;;5065569;28;20024;-71
2022/12/24 03:39:47;;;;;;;75.85;8.30;;;9.50;99.90;;;;;;5054328;28;20060;-71
2022/12/24 03:42:13;;;;;;;61.20;7.35;;;9.50;99.90;;;;;;5069458;28;20054;-71
2022/12/24 03:44:39;;;;;;;57.97;7.00;;;9.50;99.90;;;;;;5069455;28;20021;-71
2022/12/24 03:47:05;;;;;;;54.50;7.05;;;9.50;99.90;;;;;;5070603;28;20046;-70
2022/12/24 03:49:30;;;;;;;45.08;6.30;;;9.50;99.90;;;;;;5066068;28;20063;-71
2022/12/24 03:51:56;;;;;;;55.22;7.57;;;9.50;99.90;;;;;;5066564;28;20024;-71
2022/12/24 03:54:21;;;;;;;61.88;7.25;;;9.50;99.90;;;;;;5065978;28;20514;-71
2022/12/24 03:56:47;;;;;;;59.30;7.80;;;9.50;99.90;;;;;;5061961;28;20029;-70
2022/12/24 03:59:13;;;;;;;59.08;7.60;;;9.50;99.90;;;;;;5056193;28;20017;-71
2022/12/24 04:01:38;;;;;;;65.20;6.90;;;9.50;99.90;;;;;;5058253;28;20029;-71
2022/12/24 04:04:04;;;;;;;51.83;6.25;;;9.50;99.90;;;;;;5056399;28;20051;-71
2022/12/24 04:06:30;;;;;;;51.13;6.90;;;9.50;99.90;;;;;;5063226;28;20033;-72
2022/12/24 04:08:58;;;;;;;60.88;7.60;;;9.50;99.90;;;;;;5068823;28;20448;-71
2022/12/24 04:11:23;;;;;;;53.58;6.07;;;9.50;99.90;;;;;;5066787;28;20019;-72
2022/12/24 04:13:49;;;;;;;57.95;7.50;;;9.50;99.90;;;;;;5062133;28;20025;-71
2022/12/24 04:16:16;;;;;;;53.78;6.65;;;9.50;99.90;;;;;;5066511;28;20103;-71
2022/12/24 04:18:42;;;;;;;60.05;6.43;;;9.50;99.90;;;;;;5065991;28;20021;-70
2022/12/24 04:21:08;;;;;;;58.20;6.50;;;9.50;99.90;;;;;;5060181;28;20032;-70
2022/12/24 04:23:35;;;;;;;55.97;7.57;;;9.50;99.90;;;;;;5062847;28;20485;-71
2022/12/24 04:26:02;;;;;;;54.42;6.60;;;9.60;99.90;;;;;;5060255;28;20037;-72
2022/12/24 04:28:29;;;;;;;47.85;6.55;;;9.60;99.90;;;;;;5062722;28;20370;-70
2022/12/24 04:30:59;;;;;;;52.05;6.70;;;9.50;99.90;;;;;;5052182;28;20025;-70
2022/12/24 04:33:25;;;;;;;63.08;7.47;;;9.60;99.90;;;;;;5062102;28;20060;-71
2022/12/24 04:35:51;;;;;;;58.30;6.47;;;9.50;99.90;;;;;;5060503;28;20064;-70
2022/12/24 04:38:16;;;;;;;45.38;6.40;;;9.60;99.90;;;;;;5050856;28;20167;-71
2022/12/24 04:40:42;;;;;;;53.97;6.07;;;9.60;99.90;;;;;;5067422;28;20028;-71
2022/12/24 04:43:08;;;;;;;42.95;6.35;;;9.60;99.90;;;;;;5065431;28;20039;-71
2022/12/24 04:45:33;;;;;;;48.53;5.93;;;9.60;99.90;;;;;;5069194;28;20084;-71
2022/12/24 04:47:59;;;;;;;58.85;7.30;;;9.60;99.90;;;;;;5070555;28;20047;-71
2022/12/24 04:50:25;;;;;;;55.08;6.70;;;9.60;99.90;;;;;;5071982;28;20021;-71
2022/12/24 04:52:50;;;;;;;47.70;6.35;;;9.50;99.90;;;;;;5065944;28;20032;-71
2022/12/24 04:55:16;;;;;;;53.85;6.05;;;9.60;99.90;;;;;;5069005;28;20021;-72
2022/12/24 04:57:41;;;;;;;59.05;6.38;;;9.60;99.90;;;;;;5072857;28;20402;-71
2022/12/24 05:00:09;;;;;;;54.53;6.53;;;9.60;99.90;;;;;;5067037;28;20028;-72
2022/12/24 05:02:35;;;;;;;51.13;7.20;;;9.60;99.90;;;;;;5059474;28;20037;-72
2022/12/24 05:05:01;;;;;;;60.80;7.38;;;9.60;99.90;;;;;;5063263;28;20040;-72
2022/12/24 05:07:27;;;;;;;56.72;6.75;;;9.60;99.90;;;;;;5058812;28;20426;-72
2022/12/24 05:09:53;;;;;;;54.53;6.93;;;9.60;99.90;;;;;;5064394;28;20056;-71
2022/12/24 05:12:18;;;;;;;59.38;7.30;;;9.60;99.90;;;;;;5072559;28;20021;-71
2022/12/24 05:14:44;;;;;;;59.97;6.57;;;9.60;99.90;;;;;;5071566;28;20056;-72
2022/12/24 05:17:09;;;;;;;58.50;6.70;;;9.60;99.90;;;;;;5067706;28;20032;-72
2022/12/24 05:19:35;;;;;;;59.58;7.38;;;9.60;99.90;;;;;;5070436;28;20082;-72
2022/12/24 05:27:29;;;;;;;67.03;7.07;;;9.70;99.90;;;;;;5056709;28;20036;-71
2022/12/24 05:29:55;;;;;;;58.47;7.13;;;9.70;99.90;;;;;;5069951;28;20028;-71
2022/12/24 05:32:20;;;;;;;66.18;8.30;;;9.70;99.90;;;;;;5065636;28;20028;-71
2022/12/24 05:34:46;;;;;;;78.38;8.90;;;9.70;99.90;;;;;;5068285;28;20059;-71
2022/12/24 05:37:11;;;;;;;64.18;8.02;;;9.70;99.90;;;;;;5065452;28;20083;-71
2022/12/24 05:39:37;;;;;;;61.33;7.53;;;9.70;99.90;;;;;;5073651;28;20060;-71
2022/12/24 05:42:03;;;;;;;64.10;6.57;;;9.70;99.90;;;;;;5033940;28;20397;-71
2022/12/24 05:44:28;;;;;;;68.93;7.95;;;9.70;99.90;;;;;;5060545;28;20031;-71
2022/12/24 05:46:54;;;;;;;68.20;8.00;;;9.70;99.90;;;;;;5063902;28;20024;-71
2022/12/24 05:49:20;;;;;;;55.55;7.18;;;9.70;99.90;;;;;;5070540;28;20025;-72
2022/12/24 05:51:45;;;;;;;66.95;8.07;;;9.70;99.90;;;;;;5072758;28;20117;-72
2022/12/24 05:54:11;;;;;;;74.25;8.63;;;9.70;99.90;;;;;;5067491;28;20032;-72
2022/12/24 05:56:36;;;;;;;66.22;7.88;;;9.70;99.90;;;;;;5070496;28;20413;-71
2022/12/24 05:59:02;;;;;;;72.53;8.00;;;9.70;99.90;;;;;;5063691;28;20060;-72
2022/12/24 06:01:28;;;;;;;67.90;8.38;;;9.70;99.90;;;;;;5064849;28;20028;-72
2022/12/24 06:03:55;;;;;;;51.63;7.50;;;9.70;99.90;;;;;;5046790;28;20033;-71
2022/12/24 06:06:24;;;;;;;53.83;7.07;;;9.70;99.90;;;;;;5060267;28;20033;-71
2022/12/24 06:08:52;;;;;;;72.05;8.35;;;9.60;99.90;;;;;;5071176;28;20056;-70
2022/12/24 06:11:22;;;;;;;64.38;7.70;;;9.60;99.90;;;;;;5065596;28;20118;-71
2022/12/24 06:13:47;;;;;;;57.20;7.07;;;9.60;99.90;;;;;;5064879;28;20111;-70
2022/12/24 06:16:16;;;;;;;76.05;8.48;;;9.50;99.90;;;;;;5067829;28;20302;-70
2022/12/24 06:18:42;;;;;;;75.55;8.38;;;9.50;99.90;;;;;;5068006;28;20060;-70
2022/12/24 06:21:09;;;;;;;66.22;7.78;;;9.40;99.90;;;;;;5056294;28;20029;-70
2022/12/24 06:23:37;;;;;;;66.32;7.63;;;9.40;99.90;;;;;;5063644;28;20123;-72
2022/12/24 06:26:04;;;;;;;76.15;9.60;;;9.40;99.90;;;;;;5064610;28;20044;-70
2022/12/24 06:28:32;;;;;;;75.20;8.38;;;9.40;99.90;;;;;;5058047;28;20063;-72
2022/12/24 06:30:59;;;;;;;77.85;9.10;;;9.40;99.90;;;;;;5069008;28;20028;-72
2022/12/24 06:33:25;;;;;;;82.50;9.18;;;9.30;99.90;;;;;;5071657;28;20040;-71
2022/12/24 06:35:51;;;;;;;78.53;9.10;;;9.30;99.90;;;;;;5071351;28;20078;-71
2022/12/24 06:38:17;;;;;;;70.32;9.52;;;9.30;99.90;;;;;;5071463;28;20344;-71
2022/12/24 06:40:44;;;;;;;81.32;9.52;;;9.30;99.90;;;;;;5070051;28;20028;-70
2022/12/24 06:43:10;;;;;;;71.53;8.93;;;9.30;99.90;;;;;;5071345;28;20024;-71
2022/12/24 06:45:36;;;;;;;69.53;8.32;;;9.30;99.90;;;;;;5069327;28;20038;-69
2022/12/24 06:48:01;;;;;;;69.43;8.95;;;9.30;99.90;;;;;;5064482;28;20025;-71
2022/12/24 06:50:27;;;;;;;82.97;8.68;;;9.20;99.90;;;;;;5057741;28;20355;-71
2022/12/24 06:52:53;;;;;;;79.80;10.45;;;9.20;99.90;;;;;;5072068;28;20040;-71
2022/12/24 06:55:19;;;;;;;78.28;10.18;;;9.20;99.90;;;;;;5072191;28;20012;-71
2022/12/24 06:57:45;;;;;;;77.30;8.65;;;9.10;99.90;;;;;;5071853;28;20021;-71
2022/12/24 07:00:11;;;;;;;73.57;8.73;;;9.10;99.90;;;;;;5068839;28;20032;-71
2022/12/24 07:02:43;;;;;;;77.68;8.68;;;9.10;99.90;;;;;;5065796;28;20044;-71
2022/12/24 07:05:11;;;;;;;68.95;8.98;;;9.00;99.90;;;;;;5054442;28;20120;-71
2022/12/24 07:07:41;;;;;;;74.35;9.15;;;9.00;99.90;;;;;;5069578;28;20489;-71
2022/12/24 07:10:10;;;;;;;82.15;8.95;;;9.00;99.90;;;;;;5068733;28;20687;-71
2022/12/24 07:12:36;;;;;;;69.65;8.35;;;9.00;99.90;;;;;;5062815;28;20032;-71
2022/12/24 07:15:02;;;;;;;82.63;8.73;;;9.00;99.90;;;;;;5058926;28;20031;-71
2022/12/24 07:17:28;;;;;;;77.53;8.93;;;9.00;99.90;;;;;;5061060;28;20024;-71
2022/12/24 07:19:53;;;;;;;70.10;7.97;;;8.90;99.90;;;;;;5057071;28;20096;-71
2022/12/24 07:22:19;;;;;;;78.50;8.77;;;8.90;99.90;;;;;;5063383;28;20021;-71
2022/12/24 07:24:45;;;;;;;84.53;9.68;;;8.90;99.90;;;;;;5053185;28;20063;-71
2022/12/24 07:27:10;;;;;;;78.38;9.25;;;8.90;99.90;;;;;;5060318;28;20016;-71
2022/12/24 07:29:36;;;;;;;70.70;8.75;;;9.00;99.90;;;;;;5055068;28;20032;-70
2022/12/24 07:32:01;;;;;;;67.10;8.18;;;9.00;99.90;;;;;;5055773;28;20047;-71
2022/12/24 07:34:27;;;;;;;77.15;8.90;;;9.00;99.90;;;;;;5067576;28;20035;-71
2022/12/24 07:36:53;;;;;;;81.57;9.43;;;9.00;99.90;;;;;;5070674;28;20107;-71
2022/12/24 07:39:18;;;;;;;72.47;8.98;;;9.00;99.90;;;;;;5070344;28;20047;-71
2022/12/24 07:41:44;;;;;;;61.65;8.85;;;9.10;99.90;;;;;;5068102;28;20048;-71
2022/12/24 07:44:13;;;;;;;65.32;8.82;;;9.10;99.90;;;;;;5063922;28;20043;-72
2022/12/24 07:46:39;;;;;;;71.05;8.80;;;9.10;99.90;;;;;;5056047;28;20064;-72
2022/12/24 07:49:05;;;;;;;63.72;8.15;;;9.00;99.90;;;;;;5055863;28;20036;-71
2022/12/24 07:51:30;;;;;;;61.17;8.10;;;9.00;99.90;;;;;;5064553;28;20052;-70
2022/12/24 07:53:56;;;;;;;65.75;8.05;;;9.00;99.90;;;;;;5070423;28;20028;-71
2022/12/24 07:56:21;;;;;;;62.75;8.05;;;9.00;99.90;;;;;;5067925;28;20047;-70
2022/12/24 07:58:49;;;;;;;73.15;8.63;;;9.00;99.90;;;;;;5070275;28;20048;-70
2022/12/24 08:01:15;;;;;;;80.32;8.93;;;9.00;99.90;;;;;;5056251;28;20095;-70
2022/12/24 08:03:40;;;;;;;76.60;8.43;;;9.00;99.90;;;;;;5049064;28;20025;-70
2022/12/24 08:06:06;;;;;;;71.57;8.95;;;9.00;99.90;;;;;;5060126;28;20110;-70
2022/12/24 08:08:32;;;;;;;79.47;8.82;;;9.00;99.90;;;;;;5048444;28;20017;-71
2022/12/24 08:11:05;;;;;;;77.65;8.73;;;9.00;99.90;;;;;;5067261;28;20037;-70
2022/12/24 08:13:31;;;;;;;79.93;9.88;;;9.00;99.90;;;;;;5067765;28;20107;-70
2022/12/24 08:15:57;;;;;;;88.38;9.32;;;9.00;99.90;;;;;;5058732;28;20070;-70
2022/12/24 08:18:23;;;;;;;83.80;9.55;;;9.10;99.90;;;;;;5069280;28;20105;-72
2022/12/24 08:20:49;;;;;;;81.70;8.50;;;9.10;99.90;;;;;;5069655;28;20013;-71
2022/12/24 08:23:15;;;;;;;87.00;11.25;;;9.10;99.90;;;;;;5069493;28;20044;-71
2022/12/24 08:25:46;;;;;;;74.30;9.02;;;9.10;99.90;;;;;;5069431;28;20020;-71
2022/12/24 08:28:14;;;;;;;81.13;9.73;;;9.10;99.90;;;;;;5063935;28;20060;-68
2022/12/24 08:30:39;;;;;;;84.15;10.45;;;9.10;99.90;;;;;;5058155;28;20064;-71
2022/12/24 08:33:05;;;;;;;83.25;8.45;;;9.10;99.90;;;;;;5050464;28;20081;-70
2022/12/24 08:35:30;;;;;;;80.68;9.10;;;9.20;99.90;;;;;;5064125;28;20028;-70
2022/12/24 08:37:56;;;;;;;80.53;9.70;;;9.20;99.90;;;;;;5054742;28;20021;-71
2022/12/24 08:40:22;;;;;;;85.05;9.90;;;9.20;99.90;;;;;;5054955;28;20148;-71
2022/12/24 08:42:47;;;;;;;73.45;9.77;;;9.20;99.90;;;;;;5059911;28;20041;-71
2022/12/24 08:45:13;;;;;;;78.97;8.88;;;9.20;99.90;;;;;;5068512;28;20025;-70
2022/12/24 08:47:39;;;;;;;80.80;8.93;;;9.30;99.90;;;;;;5061786;28;20024;-71
2022/12/24 08:50:06;;;;;;;69.32;8.73;;;9.30;99.90;;;;;;5056121;28;20025;-70
2022/12/24 08:52:32;;;;;;;63.38;8.10;;;9.30;99.90;;;;;;5066594;28;20118;-70
2022/12/24 08:54:58;;;;;;;84.47;9.52;;;9.40;99.90;;;;;;5066143;28;20036;-71
2022/12/24 08:57:23;;;;;;;77.00;9.20;;;9.40;99.90;;;;;;5053498;28;20479;-71
2022/12/24 08:59:49;;;;;;;73.47;7.90;;;9.50;99.90;;;;;;5063351;28;20017;-70
2022/12/24 09:02:14;;;;;;;74.38;8.52;;;9.50;99.90;;;;;;5068824;28;20020;-71
2022/12/24 09:04:40;;;;;;;67.10;7.93;;;9.50;99.90;;;;;;5065937;28;20067;-71
2022/12/24 09:07:07;;;;;;;68.18;8.25;;;9.60;99.90;;;;;;5068966;28;20045;-70
2022/12/24 09:09:33;;;;;;;62.42;7.68;;;9.60;99.90;;;;;;5065807;28;20023;-71
2022/12/24 09:11:58;;;;;;;67.75;7.57;;;9.60;99.90;;;;;;5064817;28;20033;-71
2022/12/24 09:14:24;;;;;;;74.10;9.18;;;9.60;99.90;;;;;;5064983;28;20033;-71
2022/12/24 09:16:49;;;;;;;68.30;8.15;;;9.70;99.90;;;;;;5062754;28;20078;-71
2022/12/24 09:19:15;;;;;;;66.43;8.10;;;9.70;99.90;;;;;;5068468;28;20016;-71
2022/12/24 09:21:41;;;;;;;64.78;8.07;;;9.70;99.90;;;;;;5069265;28;20082;-71
2022/12/24 09:24:06;;;;;;;58.83;7.40;;;9.70;99.90;;;;;;5059357;28;20543;-71
2022/12/24 09:26:32;;;;;;;63.28;7.40;;;9.70;99.90;;;;;;5067449;28;20020;-70
2022/12/24 09:28:59;;;;;;;54.92;7.38;;;9.70;99.90;;;;;;5053372;28;20502;-71
2022/12/24 09:31:26;;;;;;;64.40;7.88;;;9.80;99.90;;;;;;5065172;28;20445;-71
2022/12/24 09:33:52;;;;;;;60.28;7.93;;;9.80;99.90;;;;;;5067149;28;20028;-70
2022/12/24 09:36:18;;;;;;;61.83;7.80;;;9.80;99.90;;;;;;5059885;28;20026;-70
2022/12/24 09:38:44;;;;;;;61.75;7.60;;;9.80;99.90;;;;;;5058392;28;20029;-69
2022/12/24 09:41:14;;;;;;;59.63;7.03;;;9.90;99.90;;;;;;5070726;28;20023;-71
2022/12/24 09:43:45;;;;;;;55.58;7.60;;;9.90;99.90;;;;;;5065381;28;20032;-70
2022/12/24 09:46:31;;;;;;;53.58;7.63;;;9.90;99.90;;;;;;5074142;28;20033;-70
2022/12/24 09:49:02;;;;;;;53.53;8.00;;;9.90;99.90;;;;;;5055644;28;20032;-70
2022/12/24 09:51:50;;;;;;;54.75;6.75;;;10.00;99.90;;;;;;5051923;28;20029;-70
2022/12/24 09:54:38;;;;;;;53.03;6.60;;;10.00;99.90;;;;;;5055628;28;20051;-70
2022/12/24 09:57:28;;;;;;;55.72;6.93;;;10.00;99.90;;;;;;5052376;28;20032;-70
2022/12/24 09:59:54;;;;;;;53.95;6.80;;;10.10;99.90;;;;;;5051878;28;20032;-70
2022/12/24 10:02:20;;;;;;;63.25;6.68;;;10.10;99.90;;;;;;5069067;28;20021;-70
2022/12/24 10:04:47;;;;;;;47.55;7.20;;;10.10;99.90;;;;;;5065528;28;20076;-70
2022/12/24 10:07:34;;;;;;;58.75;7.20;;;10.10;99.90;;;;;;5070554;28;20017;-70
2022/12/24 10:10:06;;;;;;;52.42;6.95;;;10.20;99.90;;;;;;5069893;28;20428;-70
2022/12/24 10:12:43;;;;;;;45.38;6.88;;;10.20;99.90;;;;;;5064461;28;20048;-69
2022/12/24 10:15:14;;;;;;;51.40;6.70;;;10.20;99.90;;;;;;5071327;28;20032;-69
2022/12/24 10:17:43;;;;;;;50.50;6.40;;;10.20;99.90;;;;;;5067627;28;20548;-70
2022/12/24 10:20:28;;;;;;;46.58;6.22;;;10.30;99.90;;;;;;5055473;28;20025;-70
2022/12/24 10:22:57;;;;;;;50.85;6.70;;;10.30;99.90;;;;;;5068355;28;20067;-69
2022/12/24 10:25:32;;;;;;;44.53;5.97;;;10.30;99.90;;;;;;5068748;28;20055;-69
2022/12/24 10:28:01;;;;;;;47.65;6.03;;;10.40;99.90;;;;;;5062910;28;20097;-69
2022/12/24 10:30:27;;;;;;;45.05;6.32;;;10.50;99.90;;;;;;5065707;28;20477;-70
2022/12/24 10:32:54;;;;;;;57.55;7.28;;;10.50;99.90;;;;;;5062195;28;20036;-70
2022/12/24 10:35:31;;;;;;;45.20;6.20;;;10.50;99.90;;;;;;5051686;28;20394;-70
2022/12/24 10:37:57;;;;;;;52.05;6.07;;;10.50;99.90;;;;;;5059158;28;20034;-70
2022/12/24 10:40:39;;;;;;;52.60;5.78;;;10.50;99.90;;;;;;5063873;28;20104;-69
2022/12/24 10:43:25;;;;;;;48.35;5.63;;;10.50;99.90;;;;;;5058493;28;20051;-70
2022/12/24 10:46:01;;;;;;;;;;;10.40;99.90;;;;;;5058552;28;20040;-70
2022/12/24 10:48:28;;;;;;;31.00;3.95;;;10.40;99.90;;;;;;5060252;28;19909;-70
2022/12/24 10:51:33;;;;;;;47.55;6.60;;;10.40;99.90;;;;;;5059626;28;20029;-69
2022/12/24 10:54:12;;;;;;;52.38;6.80;;;10.30;99.90;;;;;;4986042;28;20658;-70
2022/12/24 10:56:41;;;;;;;47.42;5.78;;;10.40;99.90;;;;;;4981863;28;20110;-70
2022/12/24 10:59:26;;;;;;;45.58;6.50;;;10.30;99.90;;;;;;4985662;28;20073;-70
2022/12/24 11:01:52;;;;;;;45.95;5.57;;;10.30;99.90;;;;;;4983268;28;20039;-69
2022/12/24 11:04:24;;;;;;;42.45;5.82;;;10.30;99.90;;;;;;4986373;28;20096;-69
2022/12/24 11:07:00;;;;;;;45.25;6.35;;;10.30;99.90;;;;;;4988977;28;20089;-70
2022/12/24 11:09:31;;;;;;;39.95;5.85;;;10.30;99.90;;;;;;4984957;28;20424;-70
2022/12/24 11:11:59;;;;;;;40.75;6.07;;;10.30;99.90;;;;;;4977513;28;20035;-69
2022/12/24 11:14:30;;;;;;;53.15;6.82;;;10.30;99.90;;;;;;4970226;28;20144;-70
2022/12/24 11:16:57;;;;;;;47.40;6.07;;;10.30;99.90;;;;;;4976043;28;20043;-70
2022/12/24 11:19:38;;;;;;;50.78;6.88;;;10.30;99.90;;;;;;4988611;28;20026;-70
2022/12/24 11:22:07;;;;;;;49.00;7.28;;;10.30;99.90;;;;;;4984118;28;20046;-70
2022/12/24 11:24:36;;;;;;;53.42;6.30;;;10.30;99.90;;;;;;4979608;28;20042;-69
2022/12/24 11:27:21;;;;;;;39.88;6.03;;;10.30;99.90;;;;;;4987303;28;20051;-69
2022/12/24 11:29:47;;;;;;;49.65;5.60;;;10.30;99.90;;;;;;5052448;28;20078;-70
2022/12/24 11:32:19;;;;;;;41.30;6.07;;;10.30;99.90;;;;;;5065090;28;20024;-70
2022/12/24 11:34:45;;;;;;;37.75;5.68;;;10.30;99.90;;;;;;5062298;28;20033;-70
2022/12/24 11:37:22;;;;;;;50.25;5.90;;;10.30;99.90;;;;;;5061786;28;20504;-70
2022/12/24 11:39:53;;;;;;;36.10;5.07;;;10.40;99.90;;;;;;5055020;28;20119;-70
2022/12/24 11:42:31;;;;;;;42.38;6.25;;;10.40;99.90;;;;;;5059800;28;20486;-70
2022/12/24 11:45:00;;;;;;;41.92;6.38;;;10.40;99.90;;;;;;5066961;28;20033;-70
2022/12/24 11:47:34;;;;;;;39.30;5.47;;;10.40;99.90;;;;;;5063262;28;20052;-71
2022/12/24 11:50:27;;;;;;;37.50;5.90;;;10.50;99.90;;;;;;5061214;28;20029;-71
2022/12/24 11:53:09;;;;;;;41.20;6.00;;;10.50;99.90;;;;;;5069357;28;20416;-71
2022/12/24 11:55:37;;;;;;;37.88;5.47;;;10.60;99.90;;;;;;5063391;28;20039;-71
2022/12/24 11:58:31;;;;;;;43.88;5.65;;;10.60;99.90;;;;;;5054263;28;20447;-71
2022/12/24 12:01:24;;;;;;;36.58;5.38;;;10.60;99.90;;;;;;5047093;28;20033;-71
2022/12/24 12:04:11;;;;;;;33.92;5.25;;;10.60;99.90;;;;;;5059334;28;20055;-71
2022/12/24 12:07:01;;;;;;;44.58;5.45;;;10.60;99.90;;;;;;5061061;28;20030;-71
2022/12/24 12:09:34;;;;;;;43.65;5.05;;;10.70;99.90;;;;;;5050687;28;20025;-71
2022/12/24 12:12:06;;;;;;;45.83;5.88;;;10.60;99.90;;;;;;5062641;28;20089;-72
2022/12/24 12:14:43;;;;;;;35.67;5.38;;;10.70;99.90;;;;;;5059066;28;20032;-71
2022/12/24 12:17:39;;;;;;;43.03;5.38;;;10.60;99.90;;;;;;5058168;28;20507;-71
2022/12/24 12:20:20;;;;;;;47.28;5.50;;;10.70;99.90;;;;;;5064228;28;20119;-71
2022/12/24 12:22:49;;;;;;;44.35;4.80;;;10.60;99.90;;;;;;5056655;28;20505;-71
2022/12/24 12:25:44;;;;;;;36.35;5.32;;;10.60;99.90;;;;;;5064310;28;20055;-71
2022/12/24 12:28:27;;;;;;;33.42;5.05;;;10.70;99.90;;;;;;5069499;28;20033;-71
2022/12/24 12:31:15;;;;;;;37.22;5.28;;;10.60;99.90;;;;;;5055887;28;20016;-71
2022/12/24 12:34:26;;;;;;;29.83;5.15;;;10.70;99.90;;;;;;5049569;28;20193;-72
2022/12/24 12:37:19;;;;;;;37.42;5.85;;;10.70;99.90;;;;;;5015482;28;20041;-72
2022/12/24 12:39:44;;;;;;;34.08;4.80;;;10.70;99.90;;;;;;5059148;28;20043;-71
2022/12/24 12:42:28;;;;;;;30.35;4.95;;;10.70;99.90;;;;;;5066766;28;20032;-72
2022/12/24 12:44:57;;;;;;;33.63;5.32;;;10.80;99.90;;;;;;5059938;28;20115;-71
2022/12/24 12:47:41;;;;;;;33.38;4.90;;;10.80;99.90;;;;;;5062455;28;20056;-72
2022/12/24 12:50:32;;;;;;;40.17;5.45;;;10.80;99.90;;;;;;5057503;28;20025;-71
2022/12/24 12:53:35;;;;;;;35.10;4.47;;;10.80;99.90;;;;;;5058800;28;20024;-72
2022/12/24 12:56:27;;;;;;;34.95;5.05;;;10.80;99.90;;;;;;5067744;28;20029;-72
2022/12/24 12:59:35;;;;;;;34.25;5.55;;;10.80;99.90;;;;;;5054044;28;20064;-71
2022/12/24 13:02:17;;;;;;;32.33;4.75;;;10.70;99.90;;;;;;5056398;28;20071;-71
2022/12/24 13:05:37;;;;;;;34.38;4.68;;;10.70;99.90;;;;;;5068299;28;20502;-71
2022/12/24 13:08:21;;;;;;;38.85;5.40;;;10.70;99.90;;;;;;4977108;28;20030;-71
2022/12/24 13:11:22;;;;;;;39.08;5.50;;;10.80;99.90;;;;;;4984337;28;20039;-71
2022/12/24 13:14:07;;;;;;;38.92;5.38;;;10.90;99.90;;;;;;4987126;28;20548;-71